sensor_id;sensor_type;location;lat;lon;timestamp;pressure;altitude;pressure_sealevel;temperature;humidity
57644;BME280;43474;46.510;6.686;2023-03-14T00:01:58;95472.13;;;7.05;100.00
57644;BME280;43474;46.510;6.686;2023-03-14T00:04:24;95466.84;;;7.05;100.00
57644;BME280;43474;46.510;6.686;2023-03-14T00:06:49;95466.22;;;6.97;100.00
57644;BME280;43474;46.510;6.686;2023-03-14T00:09:16;95477.88;;;7.02;100.00
57644;BME280;43474;46.510;6.686;2023-03-14T00:11:42;95476.59;;;7.04;100.00
57644;BME280;43474;46.510;6.686;2023-03-14T00:14:08;95477.47;;;6.93;100.00
57644;BME280;43474;46.510;6.686;2023-03-14T00:16:33;95491.94;;;7.07;100.00
57644;BME280;43474;46.510;6.686;2023-03-14T00:18:59;95479.94;;;6.99;100.00
57644;BME280;43474;46.510;6.686;2023-03-14T00:21:25;95481.22;;;6.97;100.00
57644;BME280;43474;46.510;6.686;2023-03-14T00:23:51;95497.50;;;6.94;100.00
57644;BME280;43474;46.510;6.686;2023-03-14T00:26:18;95481.44;;;6.95;100.00
57644;BME280;43474;46.510;6.686;2023-03-14T00:28:45;95491.28;;;7.00;100.00
57644;BME280;43474;46.510;6.686;2023-03-14T00:31:12;95463.25;;;6.94;100.00
57644;BME280;43474;46.510;6.686;2023-03-14T00:33:39;95476.50;;;6.99;100.00
57644;BME280;43474;46.510;6.686;2023-03-14T00:36:07;95488.09;;;6.98;100.00
57644;BME280;43474;46.510;6.686;2023-03-14T00:38:35;95497.63;;;6.87;100.00
57644;BME280;43474;46.510;6.686;2023-03-14T00:41:06;95515.69;;;6.95;100.00
57644;BME280;43474;46.510;6.686;2023-03-14T00:43:32;95506.34;;;6.88;100.00
57644;BME280;43474;46.510;6.686;2023-03-14T00:45:58;95519.06;;;7.08;100.00
57644;BME280;43474;46.510;6.686;2023-03-14T00:48:24;95539.03;;;7.04;100.00
57644;BME280;43474;46.510;6.686;2023-03-14T00:50:49;95550.50;;;6.97;100.00
57644;BME280;43474;46.510;6.686;2023-03-14T00:53:15;95550.50;;;6.97;100.00
57644;BME280;43474;46.510;6.686;2023-03-14T00:55:43;95538.13;;;6.98;100.00
57644;BME280;43474;46.510;6.686;2023-03-14T00:58:10;95544.75;;;7.00;100.00
57644;BME280;43474;46.510;6.686;2023-03-14T01:00:36;95553.25;;;6.91;100.00
57644;BME280;43474;46.510;6.686;2023-03-14T01:03:02;95546.97;;;6.92;100.00
57644;BME280;43474;46.510;6.686;2023-03-14T01:05:28;95537.09;;;6.99;100.00
57644;BME280;43474;46.510;6.686;2023-03-14T01:07:54;95538.38;;;6.96;100.00
57644;BME280;43474;46.510;6.686;2023-03-14T01:10:19;95540.41;;;7.06;100.00
57644;BME280;43474;46.510;6.686;2023-03-14T01:12:45;95533.56;;;6.93;100.00
57644;BME280;43474;46.510;6.686;2023-03-14T01:15:10;95538.50;;;6.90;100.00
57644;BME280;43474;46.510;6.686;2023-03-14T01:17:36;95525.66;;;6.93;100.00
57644;BME280;43474;46.510;6.686;2023-03-14T01:20:03;95513.53;;;6.92;100.00
57644;BME280;43474;46.510;6.686;2023-03-14T01:22:30;95509.06;;;6.93;100.00
57644;BME280;43474;46.510;6.686;2023-03-14T01:24:55;95481.88;;;6.76;100.00
57644;BME280;43474;46.510;6.686;2023-03-14T01:27:21;95490.78;;;6.86;100.00
57644;BME280;43474;46.510;6.686;2023-03-14T01:29:47;95474.56;;;6.78;100.00
57644;BME280;43474;46.510;6.686;2023-03-14T01:32:13;95488.84;;;6.82;100.00
57644;BME280;43474;46.510;6.686;2023-03-14T01:34:38;95490.19;;;6.84;100.00
57644;BME280;43474;46.510;6.686;2023-03-14T01:37:04;95485.97;;;6.83;100.00
57644;BME280;43474;46.510;6.686;2023-03-14T01:39:30;95464.09;;;6.83;100.00
57644;BME280;43474;46.510;6.686;2023-03-14T01:41:56;95458.06;;;6.70;100.00
57644;BME280;43474;46.510;6.686;2023-03-14T01:44:21;95456.91;;;6.78;100.00
57644;BME280;43474;46.510;6.686;2023-03-14T01:46:47;95449.47;;;6.75;100.00
57644;BME280;43474;46.510;6.686;2023-03-14T01:49:30;95442.53;;;6.69;100.00
57644;BME280;43474;46.510;6.686;2023-03-14T01:54:40;95442.06;;;6.72;100.00
57644;BME280;43474;46.510;6.686;2023-03-14T01:57:23;95446.19;;;6.68;100.00
57644;BME280;43474;46.510;6.686;2023-03-14T02:00:00;95432.06;;;6.57;100.00
57644;BME280;43474;46.510;6.686;2023-03-14T02:02:29;95433.41;;;6.60;100.00
57644;BME280;43474;46.510;6.686;2023-03-14T02:04:56;95439.81;;;6.64;100.00
57644;BME280;43474;46.510;6.686;2023-03-14T02:09:56;95420.44;;;6.70;100.00
57644;BME280;43474;46.510;6.686;2023-03-14T02:12:23;95412.63;;;6.75;100.00
57644;BME280;43474;46.510;6.686;2023-03-14T02:14:48;95417.41;;;6.78;100.00
57644;BME280;43474;46.510;6.686;2023-03-14T02:17:16;95389.63;;;6.70;100.00
57644;BME280;43474;46.510;6.686;2023-03-14T02:22:46;95343.19;;;6.64;100.00
57644;BME280;43474;46.510;6.686;2023-03-14T02:27:44;95337.56;;;6.72;100.00
57644;BME280;43474;46.510;6.686;2023-03-14T02:30:17;95326.69;;;6.69;100.00
57644;BME280;43474;46.510;6.686;2023-03-14T02:32:46;95326.94;;;6.67;100.00
57644;BME280;43474;46.510;6.686;2023-03-14T02:35:18;95314.00;;;6.66;100.00
57644;BME280;43474;46.510;6.686;2023-03-14T02:37:50;95327.66;;;6.63;100.00
57644;BME280;43474;46.510;6.686;2023-03-14T02:40:18;95344.00;;;6.65;100.00
57644;BME280;43474;46.510;6.686;2023-03-14T02:42:44;95343.91;;;6.60;100.00
57644;BME280;43474;46.510;6.686;2023-03-14T02:47:42;95337.13;;;6.47;100.00
57644;BME280;43474;46.510;6.686;2023-03-14T02:50:12;95355.81;;;6.62;100.00
57644;BME280;43474;46.510;6.686;2023-03-14T02:52:39;95348.53;;;6.69;100.00
57644;BME280;43474;46.510;6.686;2023-03-14T02:55:05;95332.03;;;6.57;100.00
57644;BME280;43474;46.510;6.686;2023-03-14T02:57:31;95334.66;;;6.57;100.00
57644;BME280;43474;46.510;6.686;2023-03-14T03:00:00;95360.66;;;6.70;100.00
57644;BME280;43474;46.510;6.686;2023-03-14T03:02:27;95360.13;;;6.68;100.00
57644;BME280;43474;46.510;6.686;2023-03-14T03:04:52;95350.31;;;6.64;100.00
57644;BME280;43474;46.510;6.686;2023-03-14T03:07:18;95341.06;;;6.78;100.00
57644;BME280;43474;46.510;6.686;2023-03-14T03:09:44;95336.25;;;6.75;100.00
57644;BME280;43474;46.510;6.686;2023-03-14T03:12:10;95326.06;;;6.79;100.00
57644;BME280;43474;46.510;6.686;2023-03-14T03:14:36;95310.44;;;6.72;100.00
57644;BME280;43474;46.510;6.686;2023-03-14T03:17:04;95330.78;;;6.77;100.00
57644;BME280;43474;46.510;6.686;2023-03-14T03:19:30;95325.72;;;6.75;100.00
57644;BME280;43474;46.510;6.686;2023-03-14T03:21:56;95322.56;;;6.73;100.00
57644;BME280;43474;46.510;6.686;2023-03-14T03:24:23;95315.69;;;6.72;100.00
57644;BME280;43474;46.510;6.686;2023-03-14T03:26:48;95292.94;;;6.66;100.00
57644;BME280;43474;46.510;6.686;2023-03-14T03:29:14;95318.63;;;6.76;100.00
57644;BME280;43474;46.510;6.686;2023-03-14T03:31:40;95292.00;;;6.72;100.00
57644;BME280;43474;46.510;6.686;2023-03-14T03:34:05;95292.38;;;6.81;100.00
57644;BME280;43474;46.510;6.686;2023-03-14T03:36:31;95301.41;;;6.85;100.00
57644;BME280;43474;46.510;6.686;2023-03-14T03:38:57;95282.56;;;6.76;100.00
57644;BME280;43474;46.510;6.686;2023-03-14T03:41:22;95298.75;;;6.85;100.00
57644;BME280;43474;46.510;6.686;2023-03-14T03:43:48;95274.59;;;6.88;100.00
57644;BME280;43474;46.510;6.686;2023-03-14T03:46:14;95263.72;;;6.84;100.00
57644;BME280;43474;46.510;6.686;2023-03-14T03:48:39;95259.50;;;6.83;100.00
57644;BME280;43474;46.510;6.686;2023-03-14T03:51:06;95259.19;;;6.80;100.00
57644;BME280;43474;46.510;6.686;2023-03-14T03:53:31;95261.81;;;6.80;100.00
57644;BME280;43474;46.510;6.686;2023-03-14T03:55:57;95269.00;;;6.84;100.00
57644;BME280;43474;46.510;6.686;2023-03-14T03:58:22;95259.50;;;6.83;100.00
57644;BME280;43474;46.510;6.686;2023-03-14T04:00:48;95247.31;;;6.77;100.00
57644;BME280;43474;46.510;6.686;2023-03-14T04:03:13;95240.94;;;6.73;100.00
57644;BME280;43474;46.510;6.686;2023-03-14T04:05:39;95254.72;;;6.80;100.00
57644;BME280;43474;46.510;6.686;2023-03-14T04:08:05;95231.75;;;6.76;100.00
57644;BME280;43474;46.510;6.686;2023-03-14T04:10:34;95230.28;;;6.85;100.00
57644;BME280;43474;46.510;6.686;2023-03-14T04:12:59;95227.13;;;6.83;100.00
57644;BME280;43474;46.510;6.686;2023-03-14T04:15:25;95196.25;;;6.61;100.00
57644;BME280;43474;46.510;6.686;2023-03-14T04:17:50;95215.16;;;6.75;100.00
57644;BME280;43474;46.510;6.686;2023-03-14T04:20:16;95199.44;;;6.80;100.00
57644;BME280;43474;46.510;6.686;2023-03-14T04:22:42;95191.38;;;6.70;100.00
57644;BME280;43474;46.510;6.686;2023-03-14T04:25:08;95179.25;;;6.69;100.00
57644;BME280;43474;46.510;6.686;2023-03-14T04:27:33;95197.28;;;6.77;100.00
57644;BME280;43474;46.510;6.686;2023-03-14T04:29:59;95184.34;;;6.76;100.00
57644;BME280;43474;46.510;6.686;2023-03-14T04:32:24;95177.59;;;6.63;100.00
57644;BME280;43474;46.510;6.686;2023-03-14T04:34:50;95179.84;;;6.54;100.00
57644;BME280;43474;46.510;6.686;2023-03-14T04:37:16;95189.66;;;6.59;100.00
57644;BME280;43474;46.510;6.686;2023-03-14T04:39:41;95181.22;;;6.57;100.00
57644;BME280;43474;46.510;6.686;2023-03-14T04:42:07;95183.75;;;6.68;100.00
57644;BME280;43474;46.510;6.686;2023-03-14T04:44:33;95179.75;;;6.66;100.00
57644;BME280;43474;46.510;6.686;2023-03-14T04:46:58;95155.91;;;6.56;100.00
57644;BME280;43474;46.510;6.686;2023-03-14T04:49:24;95137.88;;;6.64;100.00
57644;BME280;43474;46.510;6.686;2023-03-14T04:51:49;95153.56;;;6.76;100.00
57644;BME280;43474;46.510;6.686;2023-03-14T04:54:18;95126.06;;;6.67;100.00
57644;BME280;43474;46.510;6.686;2023-03-14T04:56:44;95118.66;;;6.64;100.00
57644;BME280;43474;46.510;6.686;2023-03-14T04:59:09;95119.38;;;6.59;100.00
57644;BME280;43474;46.510;6.686;2023-03-14T05:01:35;95093.97;;;6.48;100.00
57644;BME280;43474;46.510;6.686;2023-03-14T05:04:01;95105.44;;;6.59;100.00
57644;BME280;43474;46.510;6.686;2023-03-14T05:06:26;95098.00;;;6.56;100.00
57644;BME280;43474;46.510;6.686;2023-03-14T05:08:52;95090.91;;;6.56;100.00
57644;BME280;43474;46.510;6.686;2023-03-14T05:11:17;95095.09;;;6.52;100.00
57644;BME280;43474;46.510;6.686;2023-03-14T05:13:43;95074.75;;;6.47;100.00
57644;BME280;43474;46.510;6.686;2023-03-14T05:16:10;95094.09;;;6.58;100.00
57644;BME280;43474;46.510;6.686;2023-03-14T05:18:37;95075.41;;;6.38;100.00
57644;BME280;43474;46.510;6.686;2023-03-14T05:21:03;95073.34;;;6.40;100.00
57644;BME280;43474;46.510;6.686;2023-03-14T05:23:29;95084.19;;;6.43;100.00
57644;BME280;43474;46.510;6.686;2023-03-14T05:25:55;95102.34;;;6.45;100.00
57644;BME280;43474;46.510;6.686;2023-03-14T05:28:20;95092.88;;;6.44;100.00
57644;BME280;43474;46.510;6.686;2023-03-14T05:30:46;95085.75;;;6.44;100.00
57644;BME280;43474;46.510;6.686;2023-03-14T05:33:11;95081.53;;;6.43;100.00
57644;BME280;43474;46.510;6.686;2023-03-14T05:35:37;95081.78;;;6.42;100.00
57644;BME280;43474;46.510;6.686;2023-03-14T05:38:03;95073.91;;;6.25;100.00
57644;BME280;43474;46.510;6.686;2023-03-14T05:40:28;95090.97;;;6.39;100.00
57644;BME280;43474;46.510;6.686;2023-03-14T05:42:54;95075.34;;;6.33;100.00
57644;BME280;43474;46.510;6.686;2023-03-14T05:45:20;95087.78;;;6.37;100.00
57644;BME280;43474;46.510;6.686;2023-03-14T05:47:45;95088.81;;;6.36;100.00
57644;BME280;43474;46.510;6.686;2023-03-14T05:50:11;95086.22;;;6.41;100.00
57644;BME280;43474;46.510;6.686;2023-03-14T05:52:36;95084.34;;;6.37;100.00
57644;BME280;43474;46.510;6.686;2023-03-14T05:55:03;95105.53;;;6.47;100.00
57644;BME280;43474;46.510;6.686;2023-03-14T05:57:28;95104.50;;;6.48;100.00
57644;BME280;43474;46.510;6.686;2023-03-14T05:59:54;95119.13;;;6.61;100.00
57644;BME280;43474;46.510;6.686;2023-03-14T06:02:19;95122.19;;;6.53;100.00
57644;BME280;43474;46.510;6.686;2023-03-14T06:04:45;95103.19;;;6.51;100.00
57644;BME280;43474;46.510;6.686;2023-03-14T06:07:11;95125.56;;;6.70;100.00
57644;BME280;43474;46.510;6.686;2023-03-14T06:09:37;95120.81;;;6.67;100.00
57644;BME280;43474;46.510;6.686;2023-03-14T06:12:03;95118.47;;;6.70;100.00
57644;BME280;43474;46.510;6.686;2023-03-14T06:14:29;95136.16;;;6.75;100.00
57644;BME280;43474;46.510;6.686;2023-03-14T06:16:54;95122.47;;;6.73;100.00
57644;BME280;43474;46.510;6.686;2023-03-14T06:19:20;95116.03;;;6.64;100.00
57644;BME280;43474;46.510;6.686;2023-03-14T06:21:46;95136.22;;;6.80;100.00
57644;BME280;43474;46.510;6.686;2023-03-14T06:24:12;95138.38;;;6.83;100.00
57644;BME280;43474;46.510;6.686;2023-03-14T06:26:37;95147.56;;;6.81;100.00
57644;BME280;43474;46.510;6.686;2023-03-14T06:29:03;95130.38;;;6.73;100.00
57644;BME280;43474;46.510;6.686;2023-03-14T06:31:30;95143.22;;;6.69;100.00
57644;BME280;43474;46.510;6.686;2023-03-14T06:33:56;95145.78;;;6.64;100.00
57644;BME280;43474;46.510;6.686;2023-03-14T06:36:21;95158.38;;;6.62;100.00
57644;BME280;43474;46.510;6.686;2023-03-14T06:38:47;95160.44;;;6.60;100.00
57644;BME280;43474;46.510;6.686;2023-03-14T06:41:12;95152.91;;;6.47;100.00
57644;BME280;43474;46.510;6.686;2023-03-14T06:43:38;95164.59;;;6.56;100.00
57644;BME280;43474;46.510;6.686;2023-03-14T06:46:04;95167.59;;;6.43;100.00
57644;BME280;43474;46.510;6.686;2023-03-14T06:48:30;95177.38;;;6.47;100.00
57644;BME280;43474;46.510;6.686;2023-03-14T06:50:55;95185.69;;;6.39;100.00
57644;BME280;43474;46.510;6.686;2023-03-14T06:53:21;95160.59;;;6.32;100.00
57644;BME280;43474;46.510;6.686;2023-03-14T06:55:46;95170.88;;;6.33;100.00
57644;BME280;43474;46.510;6.686;2023-03-14T06:58:12;95186.56;;;6.45;100.00
57644;BME280;43474;46.510;6.686;2023-03-14T07:00:38;95191.50;;;6.41;100.00
57644;BME280;43474;46.510;6.686;2023-03-14T07:03:04;95192.84;;;6.44;100.00
57644;BME280;43474;46.510;6.686;2023-03-14T07:05:29;95191.75;;;6.40;100.00
57644;BME280;43474;46.510;6.686;2023-03-14T07:07:55;95207.47;;;6.52;100.00
57644;BME280;43474;46.510;6.686;2023-03-14T07:10:21;95198.75;;;6.51;100.00
57644;BME280;43474;46.510;6.686;2023-03-14T07:12:47;95212.47;;;6.53;100.00
57644;BME280;43474;46.510;6.686;2023-03-14T07:15:12;95208.56;;;6.56;100.00
57644;BME280;43474;46.510;6.686;2023-03-14T07:17:38;95209.75;;;6.48;100.00
57644;BME280;43474;46.510;6.686;2023-03-14T07:20:04;95204.44;;;6.43;100.00
57644;BME280;43474;46.510;6.686;2023-03-14T07:22:30;95229.31;;;6.52;100.00
57644;BME280;43474;46.510;6.686;2023-03-14T07:24:56;95229.53;;;6.51;100.00
57644;BME280;43474;46.510;6.686;2023-03-14T07:27:23;95223.72;;;6.48;100.00
57644;BME280;43474;46.510;6.686;2023-03-14T07:29:48;95212.78;;;6.40;100.00
57644;BME280;43474;46.510;6.686;2023-03-14T07:32:14;95226.81;;;6.45;100.00
57644;BME280;43474;46.510;6.686;2023-03-14T07:34:41;95242.94;;;6.49;100.00
57644;BME280;43474;46.510;6.686;2023-03-14T07:37:07;95254.25;;;6.50;100.00
57644;BME280;43474;46.510;6.686;2023-03-14T07:39:32;95258.97;;;6.47;100.00
57644;BME280;43474;46.510;6.686;2023-03-14T07:41:58;95246.38;;;6.33;100.00
57644;BME280;43474;46.510;6.686;2023-03-14T07:44:23;95249.53;;;6.35;100.00
57644;BME280;43474;46.510;6.686;2023-03-14T07:46:49;95264.63;;;6.39;100.00
57644;BME280;43474;46.510;6.686;2023-03-14T07:49:14;95240.06;;;6.17;100.00
57644;BME280;43474;46.510;6.686;2023-03-14T07:51:40;95262.44;;;6.36;100.00
57644;BME280;43474;46.510;6.686;2023-03-14T07:54:05;95270.34;;;6.36;100.00
57644;BME280;43474;46.510;6.686;2023-03-14T07:56:31;95267.81;;;6.41;100.00
57644;BME280;43474;46.510;6.686;2023-03-14T07:58:57;95273.63;;;6.43;100.00
57644;BME280;43474;46.510;6.686;2023-03-14T08:01:23;95269.09;;;6.39;100.00
57644;BME280;43474;46.510;6.686;2023-03-14T08:03:48;95269.25;;;6.49;100.00
57644;BME280;43474;46.510;6.686;2023-03-14T08:06:14;95267.41;;;6.50;100.00
57644;BME280;43474;46.510;6.686;2023-03-14T08:08:39;95277.22;;;6.54;100.00
57644;BME280;43474;46.510;6.686;2023-03-14T08:11:06;95283.63;;;6.58;100.00
57644;BME280;43474;46.510;6.686;2023-03-14T08:13:34;95267.34;;;6.44;100.00
57644;BME280;43474;46.510;6.686;2023-03-14T08:16:00;95271.56;;;6.45;100.00
57644;BME280;43474;46.510;6.686;2023-03-14T08:18:25;95296.44;;;6.55;100.00
57644;BME280;43474;46.510;6.686;2023-03-14T08:20:51;95280.81;;;6.48;100.00
57644;BME280;43474;46.510;6.686;2023-03-14T08:23:16;95287.13;;;6.47;100.00
57644;BME280;43474;46.510;6.686;2023-03-14T08:25:42;95285.66;;;6.56;100.00
57644;BME280;43474;46.510;6.686;2023-03-14T08:28:08;95291.69;;;6.52;100.00
57644;BME280;43474;46.510;6.686;2023-03-14T08:30:34;95307.84;;;6.60;100.00
57644;BME280;43474;46.510;6.686;2023-03-14T08:32:59;95302.41;;;6.50;100.00
57644;BME280;43474;46.510;6.686;2023-03-14T08:35:26;95293.09;;;6.42;100.00
57644;BME280;43474;46.510;6.686;2023-03-14T08:37:52;95313.03;;;6.55;100.00
57644;BME280;43474;46.510;6.686;2023-03-14T08:40:18;95317.41;;;6.50;100.00
57644;BME280;43474;46.510;6.686;2023-03-14T08:42:44;95316.63;;;6.49;100.00
57644;BME280;43474;46.510;6.686;2023-03-14T08:45:15;95321.09;;;6.48;100.00
57644;BME280;43474;46.510;6.686;2023-03-14T08:47:42;95323.19;;;6.46;100.00
57644;BME280;43474;46.510;6.686;2023-03-14T08:50:09;95315.81;;;6.48;100.00
57644;BME280;43474;46.510;6.686;2023-03-14T08:52:34;95323.19;;;6.46;100.00
57644;BME280;43474;46.510;6.686;2023-03-14T08:55:00;95325.13;;;6.39;100.00
57644;BME280;43474;46.510;6.686;2023-03-14T08:57:26;95340.56;;;6.47;100.00
57644;BME280;43474;46.510;6.686;2023-03-14T08:59:56;95353.63;;;6.42;100.00
57644;BME280;43474;46.510;6.686;2023-03-14T09:02:23;95342.69;;;6.34;100.00
57644;BME280;43474;46.510;6.686;2023-03-14T09:04:52;95343.47;;;6.34;100.00
57644;BME280;43474;46.510;6.686;2023-03-14T09:07:18;95341.63;;;6.35;100.00
57644;BME280;43474;46.510;6.686;2023-03-14T09:09:44;95354.41;;;6.43;100.00
57644;BME280;43474;46.510;6.686;2023-03-14T09:12:10;95380.03;;;6.47;100.00
57644;BME280;43474;46.510;6.686;2023-03-14T09:14:36;95364.38;;;6.41;100.00
57644;BME280;43474;46.510;6.686;2023-03-14T09:17:03;95376.34;;;6.48;100.00
57644;BME280;43474;46.510;6.686;2023-03-14T09:19:29;95388.97;;;6.46;100.00
57644;BME280;43474;46.510;6.686;2023-03-14T09:21:54;95381.44;;;6.38;100.00
57644;BME280;43474;46.510;6.686;2023-03-14T09:24:20;95397.56;;;6.42;100.00
57644;BME280;43474;46.510;6.686;2023-03-14T09:26:45;95395.06;;;6.35;100.00
57644;BME280;43474;46.510;6.686;2023-03-14T09:29:11;95409.34;;;6.39;100.00
57644;BME280;43474;46.510;6.686;2023-03-14T09:31:37;95413.34;;;6.42;100.00
57644;BME280;43474;46.510;6.686;2023-03-14T09:34:03;95417.69;;;6.36;100.00
57644;BME280;43474;46.510;6.686;2023-03-14T09:36:28;95434.31;;;6.37;100.00
57644;BME280;43474;46.510;6.686;2023-03-14T09:38:54;95435.47;;;6.29;100.00
57644;BME280;43474;46.510;6.686;2023-03-14T09:41:36;95448.81;;;6.39;100.00
57644;BME280;43474;46.510;6.686;2023-03-14T09:44:14;95460.38;;;6.38;100.00
57644;BME280;43474;46.510;6.686;2023-03-14T09:46:44;95473.06;;;6.41;100.00
57644;BME280;43474;46.510;6.686;2023-03-14T09:49:21;95471.34;;;6.35;100.00
57644;BME280;43474;46.510;6.686;2023-03-14T09:51:50;95482.69;;;6.36;100.00
57644;BME280;43474;46.510;6.686;2023-03-14T09:54:38;95500.66;;;6.39;100.00
57644;BME280;43474;46.510;6.686;2023-03-14T09:57:06;95485.00;;;6.32;100.00
57644;BME280;43474;46.510;6.686;2023-03-14T09:59:35;95509.69;;;6.43;100.00
57644;BME280;43474;46.510;6.686;2023-03-14T10:02:12;95521.81;;;6.44;100.00
57644;BME280;43474;46.510;6.686;2023-03-14T10:04:40;95503.28;;;6.39;100.00
57644;BME280;43474;46.510;6.686;2023-03-14T10:07:29;95520.41;;;6.41;100.00
57644;BME280;43474;46.510;6.686;2023-03-14T10:09:57;95522.84;;;6.43;100.00
57644;BME280;43474;46.510;6.686;2023-03-14T10:12:33;95536.69;;;6.38;100.00
57644;BME280;43474;46.510;6.686;2023-03-14T10:15:13;95538.75;;;6.36;100.00
57644;BME280;43474;46.510;6.686;2023-03-14T10:17:50;95534.66;;;6.29;100.00
57644;BME280;43474;46.510;6.686;2023-03-14T10:20:39;95524.72;;;6.19;100.00
57644;BME280;43474;46.510;6.686;2023-03-14T10:23:19;95547.25;;;6.27;100.00
57644;BME280;43474;46.510;6.686;2023-03-14T10:26:05;95555.13;;;6.27;100.00
57644;BME280;43474;46.510;6.686;2023-03-14T10:28:34;95553.41;;;6.32;100.00
57644;BME280;43474;46.510;6.686;2023-03-14T10:31:03;95554.31;;;6.38;100.00
57644;BME280;43474;46.510;6.686;2023-03-14T10:33:31;95551.56;;;6.33;100.00
57644;BME280;43474;46.510;6.686;2023-03-14T10:38:42;95582.34;;;6.44;100.00
57644;BME280;43474;46.510;6.686;2023-03-14T10:41:25;95579.34;;;6.40;100.00
57644;BME280;43474;46.510;6.686;2023-03-14T10:43:53;95591.94;;;6.50;100.00
57644;BME280;43474;46.510;6.686;2023-03-14T10:46:20;95594.13;;;6.53;100.00
57644;BME280;43474;46.510;6.686;2023-03-14T10:48:46;95595.72;;;6.54;100.00
57644;BME280;43474;46.510;6.686;2023-03-14T10:51:19;95595.16;;;6.52;100.00
57644;BME280;43474;46.510;6.686;2023-03-14T10:54:13;95598.34;;;6.54;100.00
57644;BME280;43474;46.510;6.686;2023-03-14T10:56:39;95595.47;;;6.56;100.00
57644;BME280;43474;46.510;6.686;2023-03-14T10:59:13;95609.78;;;6.60;100.00
57644;BME280;43474;46.510;6.686;2023-03-14T11:01:47;95622.59;;;6.68;100.00
57644;BME280;43474;46.510;6.686;2023-03-14T11:07:29;95634.03;;;6.73;100.00
57644;BME280;43474;46.510;6.686;2023-03-14T11:10:00;95647.44;;;6.72;100.00
57644;BME280;43474;46.510;6.686;2023-03-14T11:15:49;95660.72;;;6.77;100.00
57644;BME280;43474;46.510;6.686;2023-03-14T11:21:20;95667.31;;;6.80;100.00
57644;BME280;43474;46.510;6.686;2023-03-14T11:27:00;95681.84;;;6.94;100.00
57644;BME280;43474;46.510;6.686;2023-03-14T11:32:19;95713.81;;;6.97;100.00
57644;BME280;43474;46.510;6.686;2023-03-14T11:34:53;95750.47;;;6.87;100.00
57644;BME280;43474;46.510;6.686;2023-03-14T11:40:11;95768.72;;;5.93;100.00
57644;BME280;43474;46.510;6.686;2023-03-14T11:42:41;95816.56;;;5.47;100.00
57644;BME280;43474;46.510;6.686;2023-03-14T11:45:35;95823.22;;;5.06;100.00
57644;BME280;43474;46.510;6.686;2023-03-14T11:50:44;95812.88;;;4.86;100.00
57644;BME280;43474;46.510;6.686;2023-03-14T11:55:44;95835.53;;;4.87;100.00
57644;BME280;43474;46.510;6.686;2023-03-14T11:58:25;95834.03;;;4.98;100.00
57644;BME280;43474;46.510;6.686;2023-03-14T12:00:53;95829.72;;;5.04;100.00
57644;BME280;43474;46.510;6.686;2023-03-14T12:06:02;95838.47;;;5.16;100.00
57644;BME280;43474;46.510;6.686;2023-03-14T12:08:48;95838.00;;;5.26;100.00
57644;BME280;43474;46.510;6.686;2023-03-14T12:11:19;95836.91;;;5.33;100.00
57644;BME280;43474;46.510;6.686;2023-03-14T12:13:48;95844.94;;;5.57;100.00
57644;BME280;43474;46.510;6.686;2023-03-14T12:18:50;95851.53;;;6.33;100.00
57644;BME280;43474;46.510;6.686;2023-03-14T12:21:17;95859.78;;;6.66;100.00
57644;BME280;43474;46.510;6.686;2023-03-14T12:23:48;95859.00;;;6.78;100.00
57644;BME280;43474;46.510;6.686;2023-03-14T12:26:18;95860.97;;;7.06;100.00
57644;BME280;43474;46.510;6.686;2023-03-14T12:34:02;95851.69;;;7.50;100.00
57644;BME280;43474;46.510;6.686;2023-03-14T12:36:56;95864.97;;;7.78;100.00
57644;BME280;43474;46.510;6.686;2023-03-14T12:42:17;95859.25;;;7.58;100.00
57644;BME280;43474;46.510;6.686;2023-03-14T12:44:51;95836.91;;;7.49;100.00
57644;BME280;43474;46.510;6.686;2023-03-14T12:49:53;95833.91;;;7.69;100.00
57644;BME280;43474;46.510;6.686;2023-03-14T12:52:35;95827.78;;;7.80;100.00
57644;BME280;43474;46.510;6.686;2023-03-14T12:55:15;95817.34;;;7.85;100.00
57644;BME280;43474;46.510;6.686;2023-03-14T12:58:03;95795.13;;;8.10;100.00
57644;BME280;43474;46.510;6.686;2023-03-14T13:00:38;95798.19;;;9.14;100.00
57644;BME280;43474;46.510;6.686;2023-03-14T13:06:00;95792.25;;;9.24;100.00
57644;BME280;43474;46.510;6.686;2023-03-14T13:08:41;95786.81;;;9.52;100.00
57644;BME280;43474;46.510;6.686;2023-03-14T13:11:12;95788.06;;;9.89;100.00
57644;BME280;43474;46.510;6.686;2023-03-14T13:13:46;95806.81;;;10.09;100.00
57644;BME280;43474;46.510;6.686;2023-03-14T13:16:17;95789.78;;;10.00;100.00
57644;BME280;43474;46.510;6.686;2023-03-14T13:18:49;95788.50;;;9.20;100.00
57644;BME280;43474;46.510;6.686;2023-03-14T13:21:20;95790.91;;;9.04;100.00
57644;BME280;43474;46.510;6.686;2023-03-14T13:24:01;95791.19;;;8.86;100.00
57644;BME280;43474;46.510;6.686;2023-03-14T13:26:41;95771.34;;;8.67;100.00
57644;BME280;43474;46.510;6.686;2023-03-14T13:29:18;95775.94;;;8.60;100.00
57644;BME280;43474;46.510;6.686;2023-03-14T13:31:49;95769.16;;;8.47;100.00
57644;BME280;43474;46.510;6.686;2023-03-14T13:34:16;95781.41;;;8.70;100.00
57644;BME280;43474;46.510;6.686;2023-03-14T13:36:42;95777.16;;;8.69;100.00
57644;BME280;43474;46.510;6.686;2023-03-14T13:39:19;95770.63;;;8.71;100.00
57644;BME280;43474;46.510;6.686;2023-03-14T13:41:46;95771.41;;;8.89;100.00
57644;BME280;43474;46.510;6.686;2023-03-14T13:46:49;95759.94;;;8.83;100.00
57644;BME280;43474;46.510;6.686;2023-03-14T13:49:22;95781.66;;;8.85;100.00
57644;BME280;43474;46.510;6.686;2023-03-14T13:51:49;95778.69;;;8.65;100.00
57644;BME280;43474;46.510;6.686;2023-03-14T13:54:19;95773.72;;;8.51;100.00
57644;BME280;43474;46.510;6.686;2023-03-14T13:56:46;95772.50;;;8.42;100.00
57644;BME280;43474;46.510;6.686;2023-03-14T13:59:29;95797.22;;;8.36;100.00
57644;BME280;43474;46.510;6.686;2023-03-14T14:01:56;95792.25;;;8.40;100.00
57644;BME280;43474;46.510;6.686;2023-03-14T14:04:24;95800.75;;;8.42;100.00
57644;BME280;43474;46.510;6.686;2023-03-14T14:06:56;95787.47;;;8.37;100.00